Time;durP1;ratioP1;P1;durP2;ratioP2;P2;SDS_P1;SDS_P2;PMS_P1;PMS_P2;Temp;Humidity;BMP_temperature;BMP_pressure;BME280_temperature;BME280_humidity;BME280_pressure;Samples;Min_cycle;Max_cycle;Signal;HPM_P1;HPM_P2
2022/12/13 00:01:16;;;;;;;36.83;22.95;;;-1.70;99.90;;;;;;5042778;28;20049;-71
2022/12/13 00:03:41;;;;;;;34.60;22.77;;;-1.50;99.90;;;;;;5027867;28;20425;-71
2022/12/13 00:06:08;;;;;;;30.08;21.83;;;-1.40;99.90;;;;;;5051545;28;20107;-73
2022/12/13 00:08:34;;;;;;;34.63;20.92;;;-1.40;99.90;;;;;;5041652;28;20041;-72
2022/12/13 00:11:01;;;;;;;35.95;23.15;;;-0.50;99.90;;;;;;5044153;28;21476;-72
2022/12/13 00:13:28;;;;;;;38.92;24.00;;;0.20;99.90;;;;;;5048763;28;20143;-71
2022/12/13 00:15:57;;;;;;;32.50;23.63;;;-1.10;99.90;;;;;;5050679;28;20056;-72
2022/12/13 00:18:24;;;;;;;34.05;24.52;;;-1.40;99.90;;;;;;5051534;28;20117;-72
2022/12/13 00:20:49;;;;;;;37.10;24.42;;;-1.40;99.90;;;;;;5044846;28;20052;-70
2022/12/13 00:23:15;;;;;;;37.53;23.90;;;-1.40;99.90;;;;;;5040467;28;20049;-72
2022/12/13 00:25:41;;;;;;;34.83;22.92;;;-1.40;99.90;;;;;;5047889;28;20885;-70
2022/12/13 00:28:07;;;;;;;33.45;21.35;;;-1.40;99.90;;;;;;5043195;28;20059;-71
2022/12/13 00:30:33;;;;;;;35.65;21.90;;;-1.30;99.90;;;;;;5049368;28;20148;-72
2022/12/13 00:32:59;;;;;;;37.67;23.27;;;-1.40;99.90;;;;;;5046279;28;20041;-72
2022/12/13 00:35:24;;;;;;;36.78;23.73;;;-1.40;99.90;;;;;;5037740;28;20052;-73
2022/12/13 00:37:50;;;;;;;28.10;20.45;;;-1.40;99.90;;;;;;5036962;28;20114;-73
2022/12/13 00:40:16;;;;;;;33.10;20.92;;;-2.60;99.90;;;;;;5036837;28;20084;-71
2022/12/13 00:42:41;;;;;;;30.67;21.23;;;-1.30;99.90;;;;;;5038812;28;20065;-70
2022/12/13 00:45:08;;;;;;;31.00;21.85;;;-1.40;99.90;;;;;;5037208;28;20048;-72
2022/12/13 00:47:34;;;;;;;27.83;19.65;;;-1.40;99.90;;;;;;5048742;28;20212;-71
2022/12/13 00:50:00;;;;;;;32.88;22.17;;;-1.40;99.90;;;;;;5041795;28;20045;-71
2022/12/13 00:52:26;;;;;;;34.05;21.50;;;-0.50;99.90;;;;;;5040052;28;20095;-74
2022/12/13 00:54:52;;;;;;;34.28;22.38;;;-1.40;99.90;;;;;;5046259;28;20159;-70
2022/12/13 00:57:17;;;;;;;31.73;19.88;;;0.00;99.90;;;;;;5050024;28;20044;-70
2022/12/13 00:59:43;;;;;;;29.58;21.48;;;-1.50;99.90;;;;;;5036622;28;20576;-72
2022/12/13 01:02:08;;;;;;;33.47;22.85;;;-1.50;99.90;;;;;;5072361;28;20050;-70
2022/12/13 01:04:34;;;;;;;26.83;18.77;;;-0.20;99.90;;;;;;5047309;28;20060;-72
2022/12/13 01:07:00;;;;;;;34.55;20.98;;;-0.20;99.90;;;;;;5050764;28;20587;-73
2022/12/13 01:09:28;;;;;;;30.23;21.13;;;-1.60;99.90;;;;;;5045631;28;20052;-71
2022/12/13 01:12:04;;;;;;;36.80;23.35;;;-1.30;99.90;;;;;;5042793;28;20592;-74
2022/12/13 01:14:30;;;;;;;31.67;20.60;;;-1.70;99.90;;;;;;5049940;28;20883;-74
2022/12/13 01:16:56;;;;;;;38.58;22.02;;;0.10;99.90;;;;;;5043628;28;20048;-73
2022/12/13 01:19:24;;;;;;;28.65;19.27;;;-0.90;99.90;;;;;;5049564;28;20098;-70
2022/12/13 01:21:54;;;;;;;32.38;21.15;;;0.00;99.90;;;;;;5041092;28;20067;-72
2022/12/13 01:24:21;;;;;;;28.50;18.80;;;-1.70;99.90;;;;;;5050498;28;20583;-71
2022/12/13 01:26:47;;;;;;;28.90;18.88;;;-1.70;99.90;;;;;;5038250;28;20107;-72
2022/12/13 01:29:13;;;;;;;29.40;19.27;;;-1.70;99.90;;;;;;5046423;28;20644;-71
2022/12/13 01:31:40;;;;;;;31.80;21.17;;;-1.10;99.90;;;;;;5046597;28;20048;-70
2022/12/13 01:34:09;;;;;;;27.27;20.27;;;-1.30;99.90;;;;;;5047186;28;20056;-70
2022/12/13 01:36:35;;;;;;;32.60;21.58;;;0.00;99.90;;;;;;5046479;28;20127;-72
2022/12/13 01:39:02;;;;;;;31.98;21.65;;;-1.50;99.90;;;;;;5053078;28;20559;-74
2022/12/13 01:41:28;;;;;;;34.47;22.17;;;-1.50;99.90;;;;;;5047608;28;20417;-72
2022/12/13 01:44:03;;;;;;;30.73;20.88;;;-1.50;99.90;;;;;;5041089;28;20060;-70
2022/12/13 01:46:31;;;;;;;22.92;17.27;;;-1.50;99.90;;;;;;5057979;28;20049;-72
2022/12/13 01:49:14;;;;;;;35.38;21.55;;;-1.50;99.90;;;;;;5046130;28;20061;-73
2022/12/13 01:51:54;;;;;;;33.97;22.20;;;-1.50;99.90;;;;;;5050219;28;20405;-69
2022/12/13 01:54:29;;;;;;;29.80;21.02;;;-1.50;99.90;;;;;;5053153;28;20044;-69
2022/12/13 01:56:56;;;;;;;28.33;18.58;;;0.40;99.90;;;;;;5041782;28;20053;-72
2022/12/13 01:59:22;;;;;;;36.40;22.75;;;-1.50;99.90;;;;;;5049387;28;20148;-71
2022/12/13 02:01:49;;;;;;;37.35;22.77;;;-1.50;99.90;;;;;;5050565;28;20141;-72
2022/12/13 02:04:25;;;;;;;31.73;19.80;;;-1.00;99.90;;;;;;5055050;28;20053;-71
2022/12/13 02:06:51;;;;;;;27.83;20.35;;;-1.50;99.90;;;;;;5051367;28;20147;-72
2022/12/13 02:09:18;;;;;;;27.42;20.10;;;-1.50;99.90;;;;;;5050364;28;20093;-70
2022/12/13 02:11:45;;;;;;;30.80;20.27;;;-0.70;99.90;;;;;;5052259;28;20048;-72
2022/12/13 02:14:11;;;;;;;30.05;19.88;;;-1.60;99.90;;;;;;5046722;28;20056;-71
2022/12/13 02:16:51;;;;;;;36.08;21.17;;;-1.60;99.90;;;;;;5049902;28;20052;-70
2022/12/13 02:19:49;;;;;;;31.83;19.75;;;-1.60;99.90;;;;;;5053914;28;20122;-70
2022/12/13 02:22:38;;;;;;;29.80;18.95;;;-1.60;99.90;;;;;;5044591;28;20741;-70
2022/12/13 02:25:15;;;;;;;26.92;19.58;;;-1.60;99.90;;;;;;5050746;28;20112;-73
2022/12/13 02:27:53;;;;;;;30.83;20.33;;;-1.60;99.90;;;;;;5047555;28;20041;-72
2022/12/13 02:30:43;;;;;;;29.30;18.25;;;-1.70;99.90;;;;;;5052409;28;20048;-70
2022/12/13 02:33:18;;;;;;;26.45;19.58;;;-1.70;99.90;;;;;;5055709;28;20415;-71
2022/12/13 02:36:19;;;;;;;25.88;15.93;;;-1.90;99.90;;;;;;5045272;28;20417;-71
2022/12/13 02:39:21;;;;;;;29.35;19.67;;;-1.80;99.90;;;;;;5016135;28;20168;-71
2022/12/13 02:41:49;;;;;;;30.80;19.92;;;-1.80;99.90;;;;;;5048252;28;20084;-72
2022/12/13 02:44:27;;;;;;;29.38;19.20;;;-1.20;99.90;;;;;;5054538;28;20069;-70
2022/12/13 02:47:00;;;;;;;32.83;20.40;;;-1.80;99.90;;;;;;5032730;28;20052;-72
2022/12/13 02:49:29;;;;;;;28.77;19.65;;;-1.80;99.90;;;;;;5057522;28;20113;-72
2022/12/13 02:51:56;;;;;;;27.67;17.92;;;-1.90;99.90;;;;;;5056289;28;20094;-73
2022/12/13 02:54:23;;;;;;;26.95;19.50;;;-0.70;99.90;;;;;;5050928;28;20056;-71
2022/12/13 02:56:56;;;;;;;28.02;20.20;;;-0.20;99.90;;;;;;5054631;28;20047;-70
2022/12/13 02:59:29;;;;;;;30.60;18.90;;;-1.20;99.90;;;;;;5058085;28;20059;-72
2022/12/13 03:02:13;;;;;;;28.65;17.77;;;-1.90;99.90;;;;;;5050396;28;20045;-74
2022/12/13 03:08:16;;;;;;;26.20;16.80;;;-1.90;99.90;;;;;;5054608;28;20089;-70
2022/12/13 03:10:51;;;;;;;28.73;18.52;;;-1.90;99.90;;;;;;5052930;28;20826;-71
2022/12/13 03:13:38;;;;;;;24.98;20.40;;;-2.00;99.90;;;;;;5052026;28;20087;-71
2022/12/13 03:16:06;;;;;;;33.65;22.58;;;-0.60;99.90;;;;;;5052228;28;20178;-71
2022/12/13 03:18:33;;;;;;;32.45;20.42;;;-2.00;99.90;;;;;;5054223;28;20053;-70
2022/12/13 03:21:03;;;;;;;30.25;21.35;;;-0.50;99.90;;;;;;5051039;28;20098;-70
2022/12/13 03:23:30;;;;;;;28.25;20.02;;;-1.90;99.90;;;;;;5057029;28;20068;-71
2022/12/13 03:26:02;;;;;;;27.85;19.35;;;-1.90;99.90;;;;;;5051711;28;20095;-72
2022/12/13 03:28:27;;;;;;;28.65;20.08;;;-2.00;99.90;;;;;;5055181;28;20044;-71
2022/12/13 03:30:53;;;;;;;30.05;18.02;;;-1.30;99.90;;;;;;5044495;28;20599;-74
2022/12/13 03:33:18;;;;;;;32.53;20.60;;;-2.10;99.90;;;;;;5057345;28;20133;-69
2022/12/13 03:35:44;;;;;;;28.63;20.13;;;-2.10;99.90;;;;;;5047106;28;20067;-71
2022/12/13 03:38:13;;;;;;;27.77;19.13;;;-0.60;99.90;;;;;;5050029;28;20121;-70
2022/12/13 03:40:39;;;;;;;26.70;18.65;;;-2.00;99.90;;;;;;5046339;28;20049;-69
2022/12/13 03:43:05;;;;;;;30.50;21.02;;;-2.00;99.90;;;;;;5053860;28;20117;-70
2022/12/13 03:45:30;;;;;;;25.90;18.55;;;-0.80;99.90;;;;;;5039883;28;20498;-72
2022/12/13 03:47:56;;;;;;;29.52;18.98;;;-1.30;99.90;;;;;;5040830;28;20356;-72
2022/12/13 03:50:21;;;;;;;32.38;21.25;;;-1.90;99.90;;;;;;5047719;28;20132;-69
2022/12/13 03:52:50;;;;;;;24.67;17.42;;;-1.90;99.90;;;;;;5044302;28;20148;-70
2022/12/13 03:55:16;;;;;;;26.17;20.23;;;-1.70;99.90;;;;;;5056711;28;20122;-69
2022/12/13 03:57:41;;;;;;;25.52;16.38;;;-1.90;99.90;;;;;;5051841;28;20033;-69
2022/12/13 04:00:08;;;;;;;31.85;21.23;;;-1.60;99.90;;;;;;5048669;28;20052;-69
2022/12/13 04:02:33;;;;;;;26.83;19.00;;;-2.00;99.90;;;;;;5051810;28;20374;-71
2022/12/13 04:04:59;;;;;;;24.83;17.58;;;-0.60;99.90;;;;;;5049812;28;20703;-70
2022/12/13 04:07:25;;;;;;;29.30;18.92;;;-2.00;99.90;;;;;;5049679;28;20049;-73
2022/12/13 04:09:50;;;;;;;25.95;19.63;;;-2.00;99.90;;;;;;5046633;28;20059;-72
2022/12/13 04:15:00;;;;;;;20.13;15.80;;;-0.20;99.90;;;;;;5049953;28;20055;-71
2022/12/13 04:17:26;;;;;;;30.17;18.92;;;0.00;99.90;;;;;;5046229;28;20040;-71
2022/12/13 04:19:51;;;;;;;26.45;18.65;;;-2.00;99.90;;;;;;5048307;28;20052;-72
2022/12/13 04:22:17;;;;;;;28.95;19.10;;;-2.00;99.90;;;;;;5044398;28;20059;-71
2022/12/13 04:24:43;;;;;;;26.23;17.92;;;-0.80;99.90;;;;;;5043336;28;20049;-71
2022/12/13 04:27:08;;;;;;;27.92;17.45;;;-1.20;99.90;;;;;;5037761;28;20059;-71
2022/12/13 04:29:34;;;;;;;28.33;20.20;;;-2.00;99.90;;;;;;5048460;28;20052;-71
2022/12/13 04:32:00;;;;;;;31.65;20.10;;;0.00;99.90;;;;;;5039459;28;20052;-69
2022/12/13 04:34:25;;;;;;;33.00;20.92;;;-2.10;99.90;;;;;;5042417;28;20127;-70
2022/12/13 04:36:51;;;;;;;26.70;18.40;;;0.00;99.90;;;;;;5050099;28;20075;-70
2022/12/13 04:39:17;;;;;;;26.55;18.83;;;-2.00;99.90;;;;;;5041697;28;20394;-70
2022/12/13 04:41:42;;;;;;;29.17;19.88;;;-1.80;99.90;;;;;;5055287;28;20160;-70
2022/12/13 04:44:09;;;;;;;24.27;16.73;;;-2.10;99.90;;;;;;5048754;28;20094;-71
2022/12/13 04:46:35;;;;;;;24.60;16.88;;;-2.10;99.90;;;;;;5047959;28;20514;-73
2022/12/13 04:49:00;;;;;;;27.85;19.33;;;-2.00;99.90;;;;;;5050515;28;20044;-71
2022/12/13 04:51:26;;;;;;;25.60;16.98;;;-0.70;99.90;;;;;;5047135;28;20169;-69
2022/12/13 04:53:52;;;;;;;29.05;19.85;;;-2.00;99.90;;;;;;5048270;28;20063;-74
2022/12/13 04:56:18;;;;;;;24.35;17.40;;;-1.00;99.90;;;;;;5048911;28;20052;-70
2022/12/13 04:58:44;;;;;;;25.08;19.02;;;-2.00;99.90;;;;;;5047763;28;20486;-73
2022/12/13 05:01:10;;;;;;;25.25;18.00;;;-2.00;99.90;;;;;;5045729;28;20068;-70
2022/12/13 05:03:37;;;;;;;28.50;17.83;;;-2.00;99.90;;;;;;5051370;28;20648;-69
2022/12/13 05:06:08;;;;;;;27.17;17.15;;;-0.20;99.90;;;;;;5047041;28;20051;-72
2022/12/13 05:08:36;;;;;;;27.80;19.50;;;-2.00;99.90;;;;;;5040541;28;20052;-69
2022/12/13 05:11:02;;;;;;;29.02;19.60;;;-0.10;99.90;;;;;;5053861;28;20048;-70
2022/12/13 05:13:28;;;;;;;30.27;20.92;;;-2.00;99.90;;;;;;5053129;28;20056;-71
2022/12/13 05:15:56;;;;;;;22.77;17.92;;;-2.10;99.90;;;;;;5050255;28;20056;-71
2022/12/13 05:18:22;;;;;;;25.48;18.95;;;-2.00;99.90;;;;;;5048798;28;20045;-72
2022/12/13 05:20:49;;;;;;;28.00;19.38;;;-1.30;99.90;;;;;;5046269;28;20055;-74
2022/12/13 05:23:16;;;;;;;25.88;18.92;;;-2.00;99.90;;;;;;5046933;28;20057;-74
2022/12/13 05:25:42;;;;;;;30.95;18.33;;;-2.10;99.90;;;;;;5052829;28;20397;-70
2022/12/13 05:28:07;;;;;;;25.33;18.95;;;-2.10;99.90;;;;;;5049751;28;20634;-70
2022/12/13 05:30:33;;;;;;;24.20;17.48;;;-0.50;99.90;;;;;;5036922;28;20559;-74
2022/12/13 05:32:59;;;;;;;26.30;19.02;;;-0.70;99.90;;;;;;5049467;28;20053;-71
2022/12/13 05:35:24;;;;;;;27.40;18.77;;;-2.20;99.90;;;;;;5047264;28;20529;-71
2022/12/13 05:37:51;;;;;;;24.73;19.75;;;-2.20;99.90;;;;;;5051640;28;20483;-70
2022/12/13 05:40:17;;;;;;;27.42;19.70;;;-0.80;99.90;;;;;;5047155;28;20064;-69
2022/12/13 05:42:42;;;;;;;26.95;19.38;;;-2.20;99.90;;;;;;5045605;28;20053;-70
2022/12/13 05:45:08;;;;;;;25.63;17.67;;;-2.00;99.90;;;;;;5058176;28;20052;-71
2022/12/13 05:47:34;;;;;;;26.65;18.38;;;-2.20;99.90;;;;;;5049829;28;20415;-72
2022/12/13 05:50:00;;;;;;;24.85;17.70;;;-0.30;99.90;;;;;;5053690;28;20052;-71
2022/12/13 05:52:25;;;;;;;23.25;18.23;;;-2.20;99.90;;;;;;5062370;28;20110;-72
2022/12/13 05:54:55;;;;;;;26.48;17.63;;;-1.40;99.90;;;;;;5054705;28;20051;-72
2022/12/13 05:57:21;;;;;;;26.73;17.05;;;-2.30;99.90;;;;;;5053730;28;20315;-69
2022/12/13 05:59:47;;;;;;;25.88;17.38;;;-2.30;99.90;;;;;;5052058;28;20048;-73
2022/12/13 06:02:13;;;;;;;30.70;18.35;;;-2.20;99.90;;;;;;5052774;28;20121;-72
2022/12/13 06:04:39;;;;;;;26.50;19.33;;;-2.20;99.90;;;;;;5056954;28;20036;-69
2022/12/13 06:07:05;;;;;;;25.45;18.55;;;-0.40;99.90;;;;;;5050380;28;20548;-70
2022/12/13 06:09:31;;;;;;;28.15;17.20;;;-2.20;99.90;;;;;;5047001;28;20592;-71
2022/12/13 06:11:57;;;;;;;24.30;18.63;;;-0.60;99.90;;;;;;5045959;28;20044;-73
2022/12/13 06:14:23;;;;;;;28.95;18.80;;;-2.30;99.90;;;;;;5049426;28;20052;-70
2022/12/13 06:16:49;;;;;;;30.48;20.02;;;-0.40;99.90;;;;;;5046476;28;20043;-73
2022/12/13 06:19:15;;;;;;;20.63;17.92;;;-2.30;99.90;;;;;;5079450;28;20844;-71
2022/12/13 06:21:41;;;;;;;26.65;17.23;;;-2.40;99.90;;;;;;5050437;28;20049;-69
2022/12/13 06:24:07;;;;;;;25.48;18.45;;;-2.40;99.90;;;;;;5055938;28;20091;-69
2022/12/13 06:26:33;;;;;;;28.70;19.73;;;-2.40;99.90;;;;;;5047397;28;20045;-72
2022/12/13 06:28:59;;;;;;;26.92;18.67;;;-2.40;99.90;;;;;;5039392;28;20048;-70
2022/12/13 06:31:24;;;;;;;26.60;18.60;;;-2.30;99.90;;;;;;5043864;28;20382;-70
2022/12/13 06:33:50;;;;;;;23.40;16.05;;;-2.40;99.90;;;;;;5045410;28;20119;-70
2022/12/13 06:36:16;;;;;;;22.45;17.05;;;-1.70;99.90;;;;;;5046993;28;20084;-71
2022/12/13 06:38:41;;;;;;;25.48;18.10;;;-2.40;99.90;;;;;;5058801;28;20079;-70
2022/12/13 06:41:12;;;;;;;23.90;17.83;;;-1.60;99.90;;;;;;5055433;28;20060;-73
2022/12/13 06:43:42;;;;;;;27.95;17.83;;;-2.30;99.90;;;;;;5046062;28;20079;-72
2022/12/13 06:46:08;;;;;;;25.63;16.95;;;-2.40;99.90;;;;;;5059790;28;20064;-71
2022/12/13 06:48:33;;;;;;;25.50;18.27;;;-2.40;99.90;;;;;;5049385;28;20068;-72
2022/12/13 06:51:06;;;;;;;27.65;18.38;;;-2.40;99.90;;;;;;5042430;28;20106;-70
2022/12/13 06:53:34;;;;;;;26.85;18.73;;;-2.40;99.90;;;;;;5059252;28;20126;-71
2022/12/13 06:56:09;;;;;;;25.75;17.33;;;-2.40;99.90;;;;;;5051888;28;20055;-69
2022/12/13 06:58:35;;;;;;;21.20;17.15;;;-1.90;99.90;;;;;;5045703;28;20072;-72
2022/12/13 07:01:06;;;;;;;23.95;18.95;;;-2.40;99.90;;;;;;5051081;28;20384;-70
2022/12/13 07:03:33;;;;;;;25.67;18.67;;;-1.90;99.90;;;;;;5050485;28;20406;-71
2022/12/13 07:06:02;;;;;;;24.05;16.50;;;-2.40;99.90;;;;;;5041497;28;20080;-70
2022/12/13 07:08:28;;;;;;;22.65;18.17;;;-2.40;99.90;;;;;;5059409;28;20079;-70
2022/12/13 07:10:54;;;;;;;28.92;20.33;;;-0.50;99.90;;;;;;5052014;28;20156;-71
2022/12/13 07:13:20;;;;;;;23.27;16.92;;;-2.40;99.90;;;;;;5040635;28;20076;-70
2022/12/13 07:15:46;;;;;;;26.42;18.40;;;-2.40;99.90;;;;;;5040371;28;20075;-73
2022/12/13 07:18:12;;;;;;;28.17;19.25;;;-2.40;99.90;;;;;;5078470;28;20040;-69
2022/12/13 07:20:39;;;;;;;27.48;19.65;;;-2.40;99.90;;;;;;5046904;28;20040;-70
2022/12/13 07:23:05;;;;;;;26.58;19.45;;;-2.40;99.90;;;;;;5038817;28;20051;-72
2022/12/13 07:25:31;;;;;;;28.67;19.05;;;-2.40;99.90;;;;;;5027577;28;20687;-71
2022/12/13 07:28:03;;;;;;;26.90;20.35;;;-2.40;99.90;;;;;;5050580;28;20056;-72
2022/12/13 07:30:35;;;;;;;28.43;19.43;;;-2.40;99.90;;;;;;5038432;28;20407;-72
2022/12/13 07:33:02;;;;;;;27.70;20.70;;;-2.40;99.90;;;;;;5038483;28;20356;-73
2022/12/13 07:35:28;;;;;;;29.05;20.13;;;-1.00;99.90;;;;;;5043306;28;20049;-71
2022/12/13 07:37:54;;;;;;;29.20;19.92;;;-1.00;99.90;;;;;;5038603;28;20044;-71
2022/12/13 07:40:19;;;;;;;30.27;19.52;;;-2.10;99.90;;;;;;5052621;28;20048;-72
2022/12/13 07:42:52;;;;;;;28.83;20.80;;;-2.30;99.90;;;;;;5048556;28;20861;-71
2022/12/13 07:45:19;;;;;;;28.92;20.10;;;-0.60;99.90;;;;;;5037145;28;20056;-70
2022/12/13 07:47:45;;;;;;;28.48;20.98;;;-1.40;99.90;;;;;;5037439;28;20613;-73
2022/12/13 07:50:11;;;;;;;38.78;23.98;;;-1.30;99.90;;;;;;5046208;28;20202;-70
2022/12/13 07:52:37;;;;;;;29.15;17.88;;;-2.30;99.90;;;;;;5042258;28;20862;-70
2022/12/13 07:55:03;;;;;;;29.42;21.40;;;-2.30;99.90;;;;;;5045179;28;20060;-70
2022/12/13 07:57:29;;;;;;;28.00;20.90;;;-2.30;99.90;;;;;;5042338;28;20168;-71
2022/12/13 07:59:55;;;;;;;28.85;21.67;;;-2.30;99.90;;;;;;5042379;28;20098;-72
2022/12/13 08:02:21;;;;;;;36.95;22.30;;;-0.80;99.90;;;;;;5046511;28;20044;-71
2022/12/13 08:04:46;;;;;;;36.33;22.33;;;-2.30;99.90;;;;;;5045553;28;20060;-71
2022/12/13 08:07:12;;;;;;;29.77;19.58;;;-2.30;99.90;;;;;;5038620;28;20044;-72
2022/12/13 08:09:38;;;;;;;31.60;22.25;;;-2.10;99.90;;;;;;5047728;28;20472;-72
2022/12/13 08:12:04;;;;;;;32.08;21.42;;;-2.30;99.90;;;;;;5045538;28;20110;-74
2022/12/13 08:14:30;;;;;;;37.13;21.33;;;-2.30;99.90;;;;;;5047608;28;20045;-70
2022/12/13 08:16:56;;;;;;;34.92;23.25;;;-2.20;99.90;;;;;;5042255;28;20080;-71
2022/12/13 08:19:22;;;;;;;28.80;20.52;;;-2.20;99.90;;;;;;5046399;28;20544;-70
2022/12/13 08:21:51;;;;;;;34.15;23.70;;;-2.20;99.90;;;;;;5046939;28;20091;-73
2022/12/13 08:24:17;;;;;;;32.53;21.88;;;-2.20;99.90;;;;;;5047743;28;20060;-71
2022/12/13 08:26:43;;;;;;;28.30;21.27;;;-2.10;99.90;;;;;;5051568;28;20048;-71
2022/12/13 08:29:10;;;;;;;35.53;22.23;;;-0.90;99.90;;;;;;5047710;28;20056;-70
2022/12/13 08:31:36;;;;;;;28.50;20.02;;;-2.00;99.90;;;;;;5038441;28;20050;-72
2022/12/13 08:34:01;;;;;;;29.90;20.35;;;-1.50;99.90;;;;;;5041485;28;20048;-70
2022/12/13 08:36:27;;;;;;;33.25;23.38;;;-2.00;99.90;;;;;;5037205;28;20101;-71
2022/12/13 08:38:55;;;;;;;34.92;21.88;;;-1.90;99.90;;;;;;5042209;28;20139;-71
2022/12/13 08:41:22;;;;;;;34.20;20.40;;;-1.80;99.90;;;;;;5051772;28;20071;-71
2022/12/13 08:43:47;;;;;;;30.13;20.95;;;-1.70;99.90;;;;;;5039981;28;20060;-71
2022/12/13 08:46:13;;;;;;;33.13;22.33;;;0.00;99.90;;;;;;5039524;28;20049;-72
2022/12/13 08:48:39;;;;;;;40.22;24.88;;;-1.60;99.90;;;;;;5042531;28;20052;-71
2022/12/13 08:51:11;;;;;;;34.17;23.38;;;-1.40;99.90;;;;;;5036843;28;20069;-73
2022/12/13 08:53:38;;;;;;;35.17;22.65;;;-1.50;99.90;;;;;;5044912;28;20284;-71
2022/12/13 08:56:06;;;;;;;38.08;23.80;;;-1.40;99.90;;;;;;5046017;28;20080;-71
2022/12/13 08:58:32;;;;;;;33.63;22.58;;;-1.30;99.90;;;;;;5043697;28;20481;-71
2022/12/13 09:00:58;;;;;;;34.58;22.75;;;-1.20;99.90;;;;;;5046777;28;20044;-71
2022/12/13 09:03:24;;;;;;;36.42;23.92;;;-1.20;99.90;;;;;;5046023;28;20340;-71
2022/12/13 09:05:50;;;;;;;33.28;23.65;;;-1.10;99.90;;;;;;5044806;28;20044;-70
2022/12/13 09:08:16;;;;;;;32.20;24.95;;;-1.10;99.90;;;;;;5044899;28;20045;-71
2022/12/13 09:10:42;;;;;;;35.92;23.05;;;-1.00;99.90;;;;;;5047259;28;20044;-70
2022/12/13 09:13:08;;;;;;;34.15;23.10;;;-0.90;99.90;;;;;;5048645;28;20048;-73
2022/12/13 09:15:38;;;;;;;37.80;25.60;;;-0.80;99.90;;;;;;5047444;28;20586;-71
2022/12/13 09:18:04;;;;;;;27.48;21.90;;;-0.70;99.90;;;;;;5037304;28;20367;-70
2022/12/13 09:20:29;;;;;;;37.22;24.92;;;-0.70;99.90;;;;;;5048664;28;20056;-71
2022/12/13 09:22:55;;;;;;;38.28;25.30;;;-0.60;99.90;;;;;;5037842;28;20132;-71
2022/12/13 09:25:22;;;;;;;36.78;25.02;;;0.40;99.90;;;;;;5050811;28;20049;-71
2022/12/13 09:27:47;;;;;;;37.63;24.08;;;-0.30;99.90;;;;;;5041068;28;20194;-70
2022/12/13 09:30:14;;;;;;;35.30;23.98;;;-0.40;99.90;;;;;;5047861;28;20056;-72
2022/12/13 09:32:40;;;;;;;33.20;23.45;;;-0.40;99.90;;;;;;5043148;28;20080;-70
2022/12/13 09:35:06;;;;;;;32.13;23.92;;;-0.40;99.90;;;;;;5043034;28;20148;-71
2022/12/13 09:37:32;;;;;;;35.45;23.55;;;-0.50;99.90;;;;;;5048478;28;20120;-73
2022/12/13 09:39:58;;;;;;;32.25;23.92;;;0.30;99.90;;;;;;5047817;28;20930;-71
2022/12/13 09:42:26;;;;;;;36.28;24.67;;;-0.50;99.90;;;;;;5039187;28;20044;-72
2022/12/13 09:45:01;;;;;;;40.80;27.65;;;0.20;99.90;;;;;;5050373;28;20059;-73
2022/12/13 09:47:35;;;;;;;33.75;23.50;;;-0.60;99.90;;;;;;5046672;28;20060;-71
2022/12/13 09:50:12;;;;;;;35.33;23.42;;;-0.10;99.90;;;;;;5039641;28;20057;-70
2022/12/13 09:52:41;;;;;;;36.38;24.80;;;-0.50;99.90;;;;;;5038742;28;20084;-71
2022/12/13 09:55:30;;;;;;;33.33;24.83;;;0.70;99.90;;;;;;5041990;28;20052;-72
2022/12/13 09:57:57;;;;;;;36.40;23.77;;;-0.50;99.90;;;;;;5049455;28;20406;-73
2022/12/13 10:00:27;;;;;;;39.80;24.83;;;-0.40;99.90;;;;;;5068840;28;20602;-71
2022/12/13 10:02:56;;;;;;;34.65;23.40;;;-0.40;99.90;;;;;;5038263;28;20049;-74
2022/12/13 10:05:30;;;;;;;43.38;29.15;;;-0.40;99.90;;;;;;5040575;28;20054;-71
2022/12/13 10:07:59;;;;;;;34.10;23.25;;;-0.40;99.90;;;;;;5043371;28;20052;-71
2022/12/13 10:10:26;;;;;;;39.35;26.45;;;-0.40;99.90;;;;;;5044222;28;20121;-73
2022/12/13 10:13:22;;;;;;;36.90;23.70;;;-0.40;99.90;;;;;;5047014;28;20713;-70
2022/12/13 10:16:12;;;;;;;36.60;24.05;;;-0.30;99.90;;;;;;5049579;28;20056;-74
2022/12/13 10:18:41;;;;;;;38.80;27.50;;;-0.20;99.90;;;;;;5044732;28;20052;-71
2022/12/13 10:21:24;;;;;;;37.40;26.08;;;-0.20;99.90;;;;;;5051176;28;20084;-73
2022/12/13 10:23:50;;;;;;;35.25;23.15;;;-0.20;99.90;;;;;;5046925;28;20044;-71
2022/12/13 10:26:16;;;;;;;38.47;25.60;;;0.80;99.90;;;;;;5043942;28;20049;-71
2022/12/13 10:28:42;;;;;;;32.50;20.30;;;0.50;99.90;;;;;;5044055;28;20049;-72
2022/12/13 10:31:15;;;;;;;28.20;21.15;;;0.00;99.90;;;;;;5046767;28;20048;-70
2022/12/13 10:33:51;;;;;;;30.70;22.73;;;0.10;99.90;;;;;;5042837;28;20079;-71
2022/12/13 10:36:40;;;;;;;37.25;25.63;;;0.40;99.90;;;;;;5043662;28;20128;-72
2022/12/13 10:39:19;;;;;;;35.60;24.58;;;0.50;99.90;;;;;;5048857;28;20120;-70
2022/12/13 10:41:46;;;;;;;37.35;24.50;;;0.20;99.90;;;;;;5045478;28;20045;-71
2022/12/13 10:44:20;;;;;;;38.35;24.30;;;0.20;99.90;;;;;;5037316;28;20130;-70
2022/12/13 10:47:14;;;;;;;35.25;26.05;;;0.30;99.90;;;;;;5047022;28;20554;-72
2022/12/13 10:49:54;;;;;;;32.60;24.55;;;1.10;99.90;;;;;;5031778;28;20056;-71
2022/12/13 10:52:37;;;;;;;36.85;24.67;;;0.40;99.90;;;;;;5043372;28;20788;-70
2022/12/13 10:55:23;;;;;;;37.53;24.67;;;0.40;99.90;;;;;;5053296;28;20477;-70
2022/12/13 10:57:54;;;;;;;34.72;22.55;;;0.40;99.90;;;;;;5040403;28;20048;-71
2022/12/13 11:00:33;;;;;;;38.90;24.45;;;1.00;99.90;;;;;;5043895;28;20056;-71
2022/12/13 11:02:58;;;;;;;30.65;23.02;;;0.50;99.90;;;;;;5040188;28;20052;-71
2022/12/13 11:05:27;;;;;;;33.78;22.58;;;0.70;99.90;;;;;;5049307;28;20049;-70
2022/12/13 11:07:56;;;;;;;39.63;24.83;;;0.50;99.90;;;;;;5041346;28;20308;-72
2022/12/13 11:10:28;;;;;;;35.58;22.98;;;0.60;99.90;;;;;;5051938;28;20049;-73
2022/12/13 11:13:00;;;;;;;29.08;22.15;;;0.60;99.90;;;;;;5047607;28;20052;-73
2022/12/13 11:15:28;;;;;;;31.85;23.08;;;0.60;99.90;;;;;;5039181;28;20199;-71
2022/12/13 11:18:17;;;;;;;39.35;25.15;;;0.60;99.90;;;;;;5049056;28;20041;-71
2022/12/13 11:20:59;;;;;;;29.80;21.23;;;0.70;99.90;;;;;;5038490;28;20045;-69
2022/12/13 11:23:33;;;;;;;34.80;23.73;;;0.50;99.90;;;;;;5039502;28;20061;-72
2022/12/13 11:26:08;;;;;;;35.97;25.90;;;0.80;99.90;;;;;;5044501;28;20136;-71
2022/12/13 11:28:52;;;;;;;37.40;24.95;;;0.80;99.90;;;;;;5045285;28;20484;-70
2022/12/13 11:31:35;;;;;;;35.13;21.30;;;0.80;99.90;;;;;;5044972;28;20051;-71
2022/12/13 11:34:29;;;;;;;32.72;24.58;;;0.90;99.90;;;;;;5039999;28;20165;-71
2022/12/13 11:37:27;;;;;;;33.60;23.65;;;0.90;99.90;;;;;;5041062;28;20052;-73
2022/12/13 11:40:09;;;;;;;28.00;21.98;;;0.90;99.90;;;;;;5043457;28;20045;-72
2022/12/13 11:42:43;;;;;;;30.08;20.27;;;1.10;99.90;;;;;;5040585;28;20048;-71
2022/12/13 11:45:24;;;;;;;35.13;19.85;;;1.00;99.90;;;;;;5045621;28;20053;-71
2022/12/13 11:48:08;;;;;;;35.55;22.85;;;1.10;99.90;;;;;;5054472;28;20094;-71
2022/12/13 11:50:36;;;;;;;30.98;22.35;;;1.10;99.90;;;;;;5047030;28;20524;-73
2022/12/13 11:53:20;;;;;;;32.80;21.77;;;1.70;99.90;;;;;;5046951;28;20061;-70
2022/12/13 11:56:00;;;;;;;31.08;22.05;;;1.20;99.90;;;;;;5047390;28;20049;-70
2022/12/13 11:58:34;;;;;;;30.35;22.83;;;2.50;99.90;;;;;;5041390;28;20057;-71
2022/12/13 12:01:09;;;;;;;34.65;21.77;;;1.20;99.90;;;;;;5049858;28;20056;-71
2022/12/13 12:03:51;;;;;;;29.90;20.98;;;1.20;99.90;;;;;;5042161;28;20053;-70
2022/12/13 12:06:21;;;;;;;27.60;21.25;;;2.20;99.90;;;;;;5050444;28;20052;-72
2022/12/13 12:08:55;;;;;;;31.35;22.38;;;2.20;99.90;;;;;;5041261;28;20049;-73
2022/12/13 12:11:32;;;;;;;26.98;18.60;;;1.30;99.90;;;;;;5048167;28;20067;-70
2022/12/13 12:14:05;;;;;;;24.98;19.73;;;1.60;99.90;;;;;;5041683;28;20045;-71
2022/12/13 12:16:47;;;;;;;29.52;19.85;;;1.30;99.90;;;;;;5049228;28;20124;-71
2022/12/13 12:19:17;;;;;;;28.02;22.55;;;1.30;99.90;;;;;;5039266;28;20868;-72
2022/12/13 12:22:10;;;;;;;32.90;21.98;;;1.30;99.90;;;;;;5042901;28;20053;-72
2022/12/13 12:24:56;;;;;;;29.15;20.95;;;1.40;99.90;;;;;;5048956;28;20143;-72
2022/12/13 12:27:37;;;;;;;31.20;22.30;;;2.00;99.90;;;;;;5044157;28;20112;-70
2022/12/13 12:30:13;;;;;;;29.48;20.77;;;1.40;99.90;;;;;;5042137;28;20056;-71
2022/12/13 12:33:10;;;;;;;29.92;20.63;;;1.50;99.90;;;;;;5043199;28;20119;-70
2022/12/13 12:35:57;;;;;;;27.90;20.27;;;1.50;99.90;;;;;;5042711;28;20041;-72
2022/12/13 12:38:43;;;;;;;28.92;20.52;;;2.60;99.90;;;;;;5050032;28;20044;-73
2022/12/13 12:41:17;;;;;;;26.85;19.10;;;1.50;99.90;;;;;;5038783;28;20053;-70
2022/12/13 12:43:46;;;;;;;29.15;20.05;;;2.10;99.90;;;;;;5048676;28;20667;-71
2022/12/13 12:46:20;;;;;;;22.85;18.67;;;1.50;99.90;;;;;;5049288;28;20048;-70
2022/12/13 12:49:23;;;;;;;26.15;17.38;;;1.60;99.90;;;;;;5044801;28;20472;-72